Pagrindinis puslapis
METAR-TAF:

METAR-TAF

Oro uostai :

Notodden, Norvegija

platuma: 59-34N, ilguma: 009-13E, Aukštis: 19 m

Dabartinis oras

Ataskaita buvo paskelbta 47 minutes, ne 05:50 UTC
Vėjas 2 kt nuo kintamojo kryptimis
Temperatūra 13°C
Drėgmė 88%
Slėgis 1022 hPa
Matomumas 10 km arba daugiau
nėra debesų žemiau 1500 m ir nėra kamuolinių lietaus debesų

METAR: ENNO 110550Z VRB02KT CAVOK 13/11 Q1022

Laikas: 08:37 (06:37 UTC)

Prognozė

Ataskaita buvo paskelbta 1 valandą ir 37 minutes, ne 05:00 UTC
Prognozė galioja nuo 11 metu 06 UTC su 11 metu 15 UTC
Vėjas 5 kt iš Rytų/Pietryčių
Matomumas 10 km arba daugiau
nėra debesų žemiau 1500 m ir nėra kamuolinių lietaus debesų

TAF: ENNO 110500Z 1106/1115 12005KT CAVOK

Orai ataskaitas ir orų prognozės (METAR, TAF).

turimą stotys yra geltonos ir raudonos taškus žemėlapyje.

Perkelti pele per norėdami pamatyti stoties vardą.

Tada spustelėkite, norėdami matyti oro stebėjimo ir prognozės.

Norėdami pakeisti žemėlapį: spustelėkite ant žalios mygtukų su juodo kryžiaus žemyn,; žalią mygtuką su brūkšneliu, jei norite nutolinti; arba žalių rodyklių gretimoms žemėlapius.


METAR-TAF: